Time;durP1;ratioP1;P1;durP2;ratioP2;P2;SDS_P1;SDS_P2;PMS_P1;PMS_P2;Temp;Humidity;BMP_temperature;BMP_pressure;BME280_temperature;BME280_humidity;BME280_pressure;Samples;Min_cycle;Max_cycle;Signal;HPM_P1;HPM_P2
2021/12/15 00:00:47;;;;;;;3.72;3.42;;;;;;;12.24;79.54;101647.25;4901167;29;20032;-72
2021/12/15 00:03:15;;;;;;;5.28;3.28;;;;;;;12.25;78.90;101648.94;4912519;29;20031;-72
2021/12/15 00:05:42;;;;;;;5.50;3.40;;;;;;;12.26;78.77;101645.09;4913392;29;20027;-70
2021/12/15 00:08:11;;;;;;;3.33;3.13;;;;;;;12.27;78.71;101649.50;4910971;29;20023;-72
2021/12/15 00:10:37;;;;;;;5.00;3.42;;;;;;;12.26;79.23;101647.84;4896278;29;20115;-72
2021/12/15 00:13:03;;;;;;;5.63;3.63;;;;;;;12.27;79.33;101641.28;4885849;29;20037;-71
2021/12/15 00:15:29;;;;;;;4.35;3.90;;;;;;;12.27;78.65;101641.28;4900534;29;20034;-72
2021/12/15 00:17:57;;;;;;;11.00;4.30;;;;;;;12.26;79.22;101639.59;4913814;29;20432;-73
2021/12/15 00:20:23;;;;;;;7.32;5.18;;;;;;;12.24;78.82;101641.78;4888786;29;20062;-72
2021/12/15 00:22:52;;;;;;;4.82;4.38;;;;;;;12.20;79.20;101641.41;4915637;29;20089;-72
2021/12/15 00:25:23;;;;;;;5.40;4.80;;;;;;;12.21;79.52;101647.75;4914902;29;20024;-74
2021/12/15 00:27:49;;;;;;;10.20;4.72;;;;;;;12.18;79.01;101643.59;4896080;29;20364;-74
2021/12/15 00:30:15;;;;;;;5.30;4.13;;;;;;;12.21;79.81;101636.78;4891718;29;20070;-73
2021/12/15 00:32:41;;;;;;;5.78;4.57;;;;;;;12.23;79.69;101640.09;4901021;29;20036;-73
2021/12/15 00:35:08;;;;;;;4.10;3.60;;;;;;;12.22;79.78;101643.91;4918442;29;20038;-72
2021/12/15 00:37:34;;;;;;;5.00;4.57;;;;;;;12.23;79.76;101640.09;4919406;29;20158;-72
2021/12/15 00:40:00;;;;;;;4.55;4.13;;;;;;;12.24;79.15;101641.78;4901449;29;20083;-73
2021/12/15 00:42:25;;;;;;;3.83;3.40;;;;;;;12.22;79.21;101641.19;4913833;29;20028;-72
2021/12/15 00:44:51;;;;;;;4.05;3.65;;;;;;;12.22;79.14;101639.28;4915462;29;20471;-74
2021/12/15 00:47:17;;;;;;;6.75;3.00;;;;;;;12.24;79.24;101641.78;4919684;29;20032;-74
2021/12/15 00:49:43;;;;;;;6.18;4.13;;;;;;;12.23;78.71;101640.09;4905356;29;20034;-74
2021/12/15 00:52:08;;;;;;;3.75;3.45;;;;;;;12.22;79.06;101639.28;4921182;29;20041;-74
2021/12/15 00:54:35;;;;;;;9.27;4.00;;;;;;;12.21;79.16;101636.78;4902350;29;20037;-75
2021/12/15 00:57:02;;;;;;;7.28;2.95;;;;;;;12.28;79.20;101648.44;4918093;29;20052;-74
2021/12/15 00:59:28;;;;;;;6.53;3.33;;;;;;;12.26;78.55;101645.09;4894834;29;20498;-71
2021/12/15 01:01:54;;;;;;;7.82;4.45;;;;;;;12.26;78.72;101645.09;4907686;29;20044;-71
2021/12/15 01:04:22;;;;;;;4.20;3.80;;;;;;;12.28;78.61;101642.94;4909057;29;20036;-71
2021/12/15 01:06:53;;;;;;;4.70;2.65;;;;;;;12.31;78.64;101647.94;4906916;29;20032;-72
2021/12/15 01:09:27;;;;;;;3.17;2.65;;;;;;;12.32;78.14;101648.75;4913914;29;20024;-74
2021/12/15 01:19:47;;;;;;;3.00;2.22;;;;;;;12.28;78.44;101648.44;4918693;29;20043;-72
2021/12/15 01:20:10;;;;;;;4.63;2.25;;;;;;;12.28;78.42;101651.19;4925375;29;20103;-76
2021/12/15 01:22:42;;;;;;;2.42;2.30;;;;;;;12.20;77.78;101637.88;4917782;29;20039;-75
2021/12/15 01:25:28;;;;;;;2.70;2.50;;;;;;;12.20;77.76;101640.59;4918999;29;20036;-75
2021/12/15 01:27:57;;;;;;;3.08;2.40;;;;;;;12.19;77.92;101639.78;4916684;29;20028;-73
2021/12/15 01:30:35;;;;;;;4.60;2.72;;;;;;;12.28;77.64;101653.91;4900670;29;20099;-72
2021/12/15 01:33:02;;;;;;;4.07;3.65;;;;;;;12.28;78.12;101653.91;4918483;29;20043;-74
2021/12/15 01:35:32;;;;;;;3.45;2.75;;;;;;;12.28;77.64;101648.44;4887667;29;20088;-74
2021/12/15 01:37:59;;;;;;;2.33;2.13;;;;;;;12.30;78.17;101654.50;4910248;29;20032;-74
2021/12/15 01:40:37;;;;;;;3.05;2.63;;;;;;;12.35;77.79;101659.22;4893872;29;20032;-73
2021/12/15 01:43:32;;;;;;;3.42;2.78;;;;;;;12.35;77.52;101659.22;4915971;29;20539;-74
2021/12/15 01:48:59;;;;;;;3.30;3.08;;;;;;;12.31;77.99;101650.69;4911080;29;20027;-76
2021/12/15 01:51:26;;;;;;;4.07;2.97;;;;;;;12.35;77.78;101662.81;4919449;29;20040;-76
2021/12/15 01:53:59;;;;;;;5.00;2.50;;;;;;;12.29;77.46;101655.56;4915165;29;20035;-76
2021/12/15 01:56:26;;;;;;;3.65;3.03;;;;;;;12.30;77.98;101667.38;4922548;29;20080;-76
2021/12/15 01:58:52;;;;;;;3.25;2.92;;;;;;;12.36;77.65;101672.69;4922482;29;20030;-75
2021/12/15 02:01:17;;;;;;;4.95;2.22;;;;;;;12.34;77.77;101674.88;4902732;29;20559;-76
2021/12/15 02:03:43;;;;;;;4.60;2.30;;;;;;;12.33;77.90;101672.38;4913817;29;20036;-76
2021/12/15 02:06:11;;;;;;;5.60;2.63;;;;;;;12.37;78.18;101677.13;4911595;29;20563;-76
2021/12/15 02:08:37;;;;;;;3.30;3.00;;;;;;;12.35;77.73;101670.19;4904631;29;20020;-77
2021/12/15 02:11:10;;;;;;;3.33;2.25;;;;;;;12.28;78.39;101659.41;4897583;29;20035;-78
2021/12/15 02:13:36;;;;;;;3.15;2.90;;;;;;;12.30;78.17;101659.97;4914603;29;20103;-79
2021/12/15 02:16:05;;;;;;;1.92;1.83;;;;;;;12.43;77.77;101685.44;4920998;29;20051;-75
2021/12/15 02:18:36;;;;;;;2.05;1.92;;;;;;;12.43;77.79;101680.78;4901443;29;20020;-76
2021/12/15 02:21:08;;;;;;;5.82;2.38;;;;;;;12.46;78.23;101682.19;4903770;29;20487;-74
2021/12/15 02:23:39;;;;;;;2.70;2.60;;;;;;;12.48;78.07;101685.53;4901571;29;20028;-74
2021/12/15 02:26:13;;;;;;;4.82;2.30;;;;;;;12.46;77.67;101676.72;4919310;29;20024;-76
2021/12/15 02:28:44;;;;;;;1.65;1.55;;;;;;;12.45;78.02;101672.31;4919451;29;20024;-77
2021/12/15 02:31:17;;;;;;;4.90;1.15;;;;;;;12.49;78.13;101681.69;4922012;29;20487;-76
2021/12/15 02:34:03;;;;;;;1.83;1.73;;;;;;;12.54;77.63;101679.03;4922325;29;20032;-74
2021/12/15 02:39:19;;;;;;;3.42;2.10;;;;;;;12.51;77.51;101690.50;4905391;29;20515;-77
2021/12/15 02:41:46;;;;;;;3.15;2.22;;;;;;;12.49;77.54;101687.19;4908458;29;20025;-77
2021/12/15 02:44:18;;;;;;;1.65;1.55;;;;;;;12.51;77.53;101696.00;4924851;29;20374;-75
2021/12/15 02:46:45;;;;;;;4.60;2.88;;;;;;;12.53;77.38;101693.84;4905958;29;20024;-74
2021/12/15 02:49:12;;;;;;;3.47;2.08;;;;;;;12.53;77.82;101693.84;4912242;29;20031;-76
2021/12/15 02:51:41;;;;;;;3.65;1.63;;;;;;;12.52;77.77;101692.19;4897281;29;20479;-75
2021/12/15 02:54:08;;;;;;;3.40;1.90;;;;;;;12.53;77.37;101700.16;4902231;29;21214;-75
2021/12/15 02:56:35;;;;;;;2.60;2.00;;;;;;;12.50;77.42;101691.56;4918027;29;20108;-76
2021/12/15 02:59:04;;;;;;;1.92;1.80;;;;;;;12.48;77.59;101691.00;4907758;29;20043;-76
2021/12/15 03:01:51;;;;;;;8.20;2.67;;;;;;;12.53;77.24;101702.09;4920326;29;20025;-75
2021/12/15 03:07:10;;;;;;;4.72;2.47;;;;;;;12.51;77.49;101701.47;4917255;29;20029;-74
2021/12/15 03:18:07;;;;;;;2.47;1.80;;;;;;;12.46;77.19;101693.19;4924694;29;20070;-74
2021/12/15 03:20:49;;;;;;;3.28;2.13;;;;;;;12.50;77.16;101684.19;4915937;29;20047;-73
2021/12/15 03:23:24;;;;;;;1.52;1.42;;;;;;;12.48;77.30;101685.53;4905280;29;20016;-74
2021/12/15 03:25:50;;;;;;;2.22;2.03;;;;;;;12.54;76.83;101693.59;4919352;29;20024;-77
2021/12/15 03:37:23;;;;;;;3.08;1.45;;;;;;;12.52;76.75;101678.47;4867121;29;20054;-74
2021/12/15 03:48:46;;;;;;;1.58;1.45;;;;;;;12.51;76.71;101690.50;4913688;29;20063;-75
2021/12/15 03:51:13;;;;;;;7.15;1.80;;;;;;;12.52;76.06;101686.69;4909231;29;20024;-78
2021/12/15 03:53:40;;;;;;;2.45;1.50;;;;;;;12.56;76.04;101687.88;4934238;29;20091;-78
2021/12/15 03:56:08;;;;;;;2.58;1.90;;;;;;;12.55;76.25;101680.69;4910057;29;20028;-74
2021/12/15 03:59:12;;;;;;;1.35;1.25;;;;;;;12.61;75.89;101685.19;4922836;29;20088;-76
2021/12/15 04:01:38;;;;;;;1.48;1.38;;;;;;;12.58;75.84;101675.53;4918919;29;20024;-75
2021/12/15 04:04:06;;;;;;;1.48;1.38;;;;;;;12.59;75.75;101676.38;4913934;29;20043;-76
2021/12/15 04:06:35;;;;;;;1.63;1.52;;;;;;;12.58;75.71;101691.19;4902938;29;20042;-76
2021/12/15 04:09:05;;;;;;;3.55;1.70;;;;;;;12.56;75.73;101682.38;4899737;29;20123;-76
2021/12/15 04:12:30;;;;;;;4.03;1.58;;;;;;;12.59;76.18;101690.09;4904605;29;20119;-75
2021/12/15 04:17:37;;;;;;;2.20;1.60;;;;;;;12.55;76.05;101691.69;4944394;28;19922;-72
2021/12/15 04:20:09;;;;;;;3.60;1.35;;;;;;;12.51;75.74;101685.88;4942399;29;20379;-74
2021/12/15 04:22:35;;;;;;;0.98;0.70;;;;;;;12.58;75.37;101691.19;4938842;29;20092;-75
2021/12/15 04:25:06;;;;;;;1.27;1.17;;;;;;;12.56;75.39;101687.88;4939014;29;20036;-73
2021/12/15 04:27:33;;;;;;;2.22;1.33;;;;;;;12.61;75.41;101693.41;4920841;29;20030;-73
2021/12/15 04:29:59;;;;;;;3.50;1.35;;;;;;;12.60;75.39;101694.53;4939197;29;20042;-73
2021/12/15 04:32:35;;;;;;;1.40;1.25;;;;;;;12.62;75.51;101703.31;4944551;29;20028;-74
2021/12/15 04:35:00;;;;;;;;;;;;;;;12.64;74.66;101695.66;4935521;29;20509;-73
2021/12/15 04:37:26;;;;;;;;;;;;;;;12.64;75.20;101700.34;4938532;29;19919;-75
2021/12/15 04:39:51;;;;;;;2.50;1.00;;;;;;;12.60;74.42;101700.00;4920989;29;19915;-77
2021/12/15 04:42:19;;;;;;;1.65;1.27;;;;;;;12.60;74.48;101702.75;4917715;29;20390;-74
2021/12/15 04:44:46;;;;;;;3.67;1.38;;;;;;;12.59;74.92;101701.09;4906204;29;20032;-76
2021/12/15 04:47:13;;;;;;;1.80;1.10;;;;;;;12.60;74.40;101694.53;4917674;29;20126;-75
2021/12/15 04:49:49;;;;;;;2.28;1.00;;;;;;;12.62;74.78;101700.59;4934070;29;20122;-74
2021/12/15 04:52:17;;;;;;;0.75;0.73;;;;;;;12.65;74.74;101691.84;4916105;29;20051;-76
2021/12/15 04:54:44;;;;;;;3.75;1.42;;;;;;;12.65;74.67;101691.84;4919224;29;20024;-74
2021/12/15 04:57:11;;;;;;;1.65;0.80;;;;;;;12.69;74.75;101695.75;4922947;29;20129;-75
2021/12/15 04:59:37;;;;;;;1.15;1.15;;;;;;;12.72;74.56;101698.00;4928911;29;20397;-73
2021/12/15 05:02:05;;;;;;;1.95;1.05;;;;;;;12.74;74.69;101701.31;4938506;29;20036;-72
2021/12/15 05:04:31;;;;;;;2.47;0.80;;;;;;;12.73;74.45;101699.69;4938922;29;20027;-73
2021/12/15 05:06:56;;;;;;;1.30;1.20;;;;;;;12.75;74.69;101703.00;4922399;29;20066;-73
2021/12/15 05:09:22;;;;;;;0.98;0.70;;;;;;;12.80;74.36;101704.16;4915147;29;20071;-72
2021/12/15 05:11:50;;;;;;;1.48;1.17;;;;;;;12.80;74.37;101707.72;4932414;29;20027;-75
2021/12/15 05:31:58;;;;;;;1.45;0.88;;;;;;;12.81;73.87;101725.06;4938549;29;20062;-76
2021/12/15 05:41:22;;;;;;;1.10;1.10;;;;;;;12.79;74.19;101724.44;4860548;29;20044;-76
2021/12/15 05:43:48;;;;;;;1.02;1.02;;;;;;;12.80;74.05;101732.44;4875756;29;20101;-77
2021/12/15 05:46:13;;;;;;;1.42;1.30;;;;;;;12.81;73.83;101727.78;4939218;29;20048;-78
2021/12/15 05:48:42;;;;;;;2.13;0.85;;;;;;;12.81;74.23;101730.53;4905476;29;20070;-74
2021/12/15 05:51:07;;;;;;;5.28;0.88;;;;;;;12.77;74.06;101729.38;4935597;29;20023;-74
2021/12/15 05:53:33;;;;;;;1.55;1.08;;;;;;;12.80;73.89;101731.63;4919383;29;20031;-74
2021/12/15 05:55:58;;;;;;;2.55;1.23;;;;;;;12.78;73.72;101736.53;4918942;29;20103;-74
2021/12/15 05:58:24;;;;;;;2.22;1.40;;;;;;;12.73;74.56;101735.34;4939245;29;20435;-74
2021/12/15 06:00:50;;;;;;;1.48;1.38;;;;;;;12.65;74.05;101730.28;4938434;29;20027;-73
2021/12/15 06:03:16;;;;;;;1.63;1.40;;;;;;;12.68;74.40;101740.75;4900992;29;20377;-73
2021/12/15 06:05:42;;;;;;;2.63;1.73;;;;;;;12.65;74.26;101733.00;4948281;29;20028;-72
2021/12/15 06:08:08;;;;;;;2.85;1.30;;;;;;;12.66;74.23;101731.94;4923756;29;20019;-74
2021/12/15 06:10:36;;;;;;;1.38;1.27;;;;;;;12.69;74.33;101733.38;4924594;29;20039;-73
2021/12/15 06:13:05;;;;;;;1.08;1.00;;;;;;;12.71;74.55;101729.28;4923546;29;20371;-73
2021/12/15 06:15:31;;;;;;;1.55;1.45;;;;;;;12.70;74.30;101727.63;4925129;29;20028;-73
2021/12/15 06:18:15;;;;;;;2.38;1.20;;;;;;;12.71;74.34;101718.28;4925076;29;20066;-74
2021/12/15 06:20:42;;;;;;;3.58;1.73;;;;;;;12.69;74.80;101720.47;4916733;29;20157;-73
2021/12/15 06:23:12;;;;;;;3.05;1.63;;;;;;;12.68;74.54;101721.53;4941648;29;20028;-72
2021/12/15 06:25:39;;;;;;;1.70;1.60;;;;;;;12.68;74.38;101721.53;4923012;29;20027;-75
2021/12/15 06:28:05;;;;;;;1.15;1.00;;;;;;;12.69;74.09;101731.44;4922737;29;20028;-76
2021/12/15 06:30:32;;;;;;;2.50;1.45;;;;;;;12.67;74.73;101736.31;4941438;29;20459;-74
2021/12/15 06:32:58;;;;;;;3.35;1.55;;;;;;;12.64;74.16;101739.56;4918439;29;20130;-74
2021/12/15 06:35:23;;;;;;;1.75;1.48;;;;;;;12.61;74.52;101740.06;4927796;29;20062;-74
2021/12/15 06:37:49;;;;;;;1.85;1.75;;;;;;;12.60;74.89;101743.06;4906782;29;20036;-75
2021/12/15 06:40:15;;;;;;;2.50;1.38;;;;;;;12.57;74.71;101737.00;4946834;29;20121;-75
2021/12/15 06:42:44;;;;;;;2.28;1.55;;;;;;;12.59;74.39;101747.72;4917285;29;20043;-76
2021/12/15 06:45:15;;;;;;;1.63;1.17;;;;;;;12.51;74.71;101748.13;4924751;29;20019;-74
2021/12/15 06:58:40;;;;;;;1.40;1.00;;;;;;;12.56;74.74;101764.69;4932078;29;20098;-75
2021/12/15 07:01:06;;;;;;;1.85;1.65;;;;;;;12.56;74.97;101762.78;4940757;29;20099;-77
2021/12/15 07:03:33;;;;;;;4.47;1.85;;;;;;;12.51;74.63;101767.31;4923129;29;20992;-76
2021/12/15 07:05:58;;;;;;;1.70;1.60;;;;;;;12.53;74.75;101759.69;4924644;29;20028;-76
2021/12/15 07:08:28;;;;;;;1.85;1.30;;;;;;;12.59;74.20;101766.94;4940759;29;20034;-77
2021/12/15 07:11:37;;;;;;;1.67;1.30;;;;;;;12.60;74.55;101776.84;4926749;29;20035;-76
2021/12/15 07:14:06;;;;;;;1.67;1.55;;;;;;;12.53;74.32;101765.19;4879688;29;20052;-76
2021/12/15 07:16:33;;;;;;;2.25;1.70;;;;;;;12.56;74.30;101765.50;4884466;29;20052;-78
2021/12/15 07:19:08;;;;;;;1.58;1.48;;;;;;;12.52;74.33;101760.78;4866493;29;20041;-77
2021/12/15 07:21:37;;;;;;;;;;;;;;;12.62;73.76;101774.69;4855455;29;20046;-77
2021/12/15 07:24:03;;;;;;;2.25;1.77;;;;;;;12.58;74.43;101774.31;4881629;29;19920;-76
2021/12/15 07:26:29;;;;;;;3.22;1.30;;;;;;;12.47;73.99;101772.50;4863597;29;20032;-77
2021/12/15 07:28:55;;;;;;;2.65;1.92;;;;;;;12.53;74.63;101789.88;4869303;29;20074;-77
2021/12/15 07:31:21;;;;;;;1.98;1.70;;;;;;;12.50;74.70;101795.84;4884537;29;20181;-77
2021/12/15 07:33:56;;;;;;;4.60;2.30;;;;;;;12.46;74.95;101791.94;4884167;29;20061;-76
2021/12/15 07:36:24;;;;;;;;;;;;;;;12.50;74.11;101793.09;4868567;29;20045;-77
2021/12/15 07:38:50;;;;;;;5.82;1.60;;;;;;;12.37;74.42;101797.81;4874205;29;19932;-78
2021/12/15 07:41:30;;;;;;;1.92;1.50;;;;;;;12.34;74.47;101790.06;4890686;29;20032;-76
2021/12/15 07:44:02;;;;;;;2.83;2.17;;;;;;;12.36;75.07;101796.13;4890043;29;20468;-78
2021/12/15 07:46:29;;;;;;;1.38;1.20;;;;;;;12.39;74.72;101803.88;4901849;29;20517;-78
2021/12/15 07:48:54;;;;;;;2.45;2.05;;;;;;;12.29;75.04;101786.38;4913133;29;20020;-78
2021/12/15 07:51:20;;;;;;;1.48;1.38;;;;;;;12.37;74.36;101800.56;4870003;29;20107;-78
2021/12/15 07:53:45;;;;;;;1.55;1.27;;;;;;;12.42;74.91;101808.03;4876316;29;20033;-78
2021/12/15 07:56:22;;;;;;;3.95;1.83;;;;;;;12.32;74.15;101786.72;4889738;29;20075;-84
2021/12/15 07:58:51;;;;;;;2.95;1.67;;;;;;;12.36;74.33;101807.09;4876743;29;20174;-84
2021/12/15 08:01:20;;;;;;;7.72;2.00;;;;;;;12.39;74.93;101820.31;4851970;29;20483;-80
2021/12/15 08:04:17;;;;;;;5.80;2.90;;;;;;;12.24;74.41;101806.31;4915510;29;20043;-82
2021/12/15 08:06:45;;;;;;;2.80;1.77;;;;;;;12.32;75.07;101825.13;4928003;29;20035;-81
2021/12/15 08:09:22;;;;;;;;;;;;;;;;;;;;;
2021/12/15 08:11:48;;;;;;;1.60;1.50;;;;;;;12.35;74.74;101832.03;4946403;29;20103;-78
2021/12/15 08:14:15;;;;;;;6.00;2.55;;;;;;;12.36;75.27;101826.31;4923756;29;20027;-80
2021/12/15 08:16:50;;;;;;;2.13;2.03;;;;;;;12.35;75.33;101830.16;4936474;29;20036;-80
2021/12/15 08:22:19;;;;;;;2.47;2.30;;;;;;;12.21;74.86;101817.78;4945615;29;19986;-76
2021/12/15 08:24:55;;;;;;;16.40;2.90;;;;;;;12.27;75.03;101827.78;4945155;29;20051;-77
2021/12/15 08:27:21;;;;;;;1.88;1.75;;;;;;;12.22;75.67;101813.94;4921129;29;20035;-75
2021/12/15 08:29:46;;;;;;;9.27;2.15;;;;;;;12.20;74.96;101821.59;4908276;29;20031;-77
2021/12/15 08:32:12;;;;;;;3.35;2.53;;;;;;;12.27;75.37;101822.28;4927472;29;20154;-77
2021/12/15 08:34:37;;;;;;;1.58;1.48;;;;;;;12.30;75.51;101832.78;4943008;29;20032;-77
2021/12/15 08:37:06;;;;;;;2.10;2.00;;;;;;;12.39;75.11;101831.31;4943038;29;20098;-75
2021/12/15 08:39:34;;;;;;;2.17;1.95;;;;;;;12.43;75.56;101833.59;4942747;29;20034;-76
2021/12/15 08:42:10;;;;;;;;;;;;;;;;;;;;;
2021/12/15 08:44:44;;;;;;;3.20;1.95;;;;;;;12.45;75.46;101839.66;4913358;29;20038;-78
2021/12/15 08:47:33;;;;;;;1.77;1.67;;;;;;;12.49;74.92;101843.56;4918039;29;20063;-77
2021/12/15 08:50:00;;;;;;;3.92;1.98;;;;;;;12.53;74.78;101850.25;4885416;29;20057;-76
2021/12/15 08:52:46;;;;;;;1.35;1.25;;;;;;;12.62;75.09;101854.25;4918545;29;20478;-78
2021/12/15 08:55:24;;;;;;;5.43;1.67;;;;;;;12.52;75.18;101840.34;4926464;29;20490;-77
2021/12/15 08:57:53;;;;;;;2.30;2.10;;;;;;;12.54;74.58;101843.66;4924197;29;20098;-77
2021/12/15 09:00:24;;;;;;;6.55;1.98;;;;;;;12.48;74.82;101839.16;4909956;29;20036;-77
2021/12/15 09:02:53;;;;;;;3.97;2.65;;;;;;;12.58;74.37;101855.81;4923264;29;20024;-77
2021/12/15 09:05:30;;;;;;;2.67;1.80;;;;;;;12.56;74.60;101852.50;4925934;29;20474;-77
2021/12/15 09:08:14;;;;;;;2.10;1.80;;;;;;;12.57;74.79;101855.00;4932011;29;20083;-77
2021/12/15 09:10:44;;;;;;;1.98;1.88;;;;;;;12.68;74.52;101856.00;4926231;29;20028;-77
2021/12/15 09:13:09;;;;;;;3.30;2.15;;;;;;;12.78;74.10;101865.53;4926165;29;20557;-77
2021/12/15 09:15:52;;;;;;;;;;;;;;;;;;;;;
2021/12/15 09:18:18;;;;;;;2.72;2.25;;;;;;;12.77;74.12;101863.88;4937391;29;20119;-77
2021/12/15 09:20:44;;;;;;;2.78;1.63;;;;;;;12.86;74.43;101867.88;4928736;29;20052;-77
2021/12/15 09:23:14;;;;;;;3.05;1.40;;;;;;;12.92;74.43;101870.47;4940519;29;20474;-77
2021/12/15 09:25:43;;;;;;;1.77;1.50;;;;;;;12.98;74.21;101868.66;4934588;29;20059;-77
2021/12/15 09:28:11;;;;;;;2.65;2.00;;;;;;;13.00;73.95;101866.47;4943229;29;20020;-77
2021/12/15 09:30:44;;;;;;;3.22;1.80;;;;;;;12.99;73.81;101862.06;4936768;29;20047;-78
2021/12/15 09:33:28;;;;;;;2.45;2.25;;;;;;;13.09;73.55;101873.22;4923404;29;20812;-80
2021/12/15 09:35:54;;;;;;;2.60;2.40;;;;;;;13.00;73.81;101861.00;4935846;29;20039;-79
2021/12/15 09:38:22;;;;;;;1.70;1.60;;;;;;;13.10;73.36;101872.16;4923348;29;20415;-79
2021/12/15 09:40:50;;;;;;;1.67;1.35;;;;;;;13.23;73.63;101879.25;4908584;29;20039;-76
2021/12/15 09:43:19;;;;;;;1.45;1.35;;;;;;;13.28;73.29;101871.09;4924287;29;20047;-78
2021/12/15 09:46:01;;;;;;;0.90;0.90;;;;;;;13.35;73.12;101870.97;4943590;29;20035;-78
2021/12/15 10:03:02;;;;;;;5.40;1.52;;;;;;;13.75;72.60;101902.91;4947084;29;20034;-78
2021/12/15 10:19:23;;;;;;;3.33;2.47;;;;;;;15.33;70.95;101902.38;4938235;29;20054;-78
2021/12/15 10:22:33;;;;;;;2.20;2.00;;;;;;;16.85;69.02;101921.22;4943355;29;20028;-79
2021/12/15 10:25:06;;;;;;;4.65;1.88;;;;;;;17.94;65.05;101911.91;4936273;29;20031;-79
2021/12/15 10:27:58;;;;;;;2.67;1.83;;;;;;;17.95;61.81;101919.13;4924835;29;20028;-78
2021/12/15 10:30:41;;;;;;;5.13;1.63;;;;;;;17.53;61.39;101923.00;4917941;29;20048;-79
2021/12/15 10:33:12;;;;;;;2.83;1.50;;;;;;;17.07;61.57;101926.56;4940712;29;20023;-77
2021/12/15 10:35:43;;;;;;;2.40;1.35;;;;;;;16.60;62.27;101921.13;4924177;29;20505;-80
2021/12/15 10:38:18;;;;;;;;;;;;;;;;;;;;;
2021/12/15 10:41:03;;;;;;;2.95;2.08;;;;;;;15.76;63.33;101916.22;4939597;29;20122;-81
2021/12/15 10:43:44;;;;;;;2.35;2.15;;;;;;;15.54;63.80;101933.72;4926942;29;20028;-81
2021/12/15 10:46:35;;;;;;;3.33;1.95;;;;;;;15.21;64.74;101922.94;4941935;29;20091;-80
2021/12/15 10:49:15;;;;;;;2.50;1.80;;;;;;;15.01;65.53;101929.91;4924558;29;20036;-81
2021/12/15 10:51:44;;;;;;;2.50;2.03;;;;;;;14.69;66.22;101916.88;4898669;29;20047;-80
2021/12/15 10:54:36;;;;;;;2.25;2.05;;;;;;;14.73;66.42;101922.69;4925942;29;20151;-83
2021/12/15 10:57:34;;;;;;;2.05;1.85;;;;;;;14.61;67.06;101925.56;4935334;29;20042;-79
2021/12/15 11:00:19;;;;;;;2.25;2.10;;;;;;;14.43;67.47;101916.53;4918848;29;20040;-79
2021/12/15 11:02:54;;;;;;;2.80;2.60;;;;;;;14.38;67.78;101910.94;4942345;29;20028;-83
2021/12/15 11:05:21;;;;;;;;;;;;;;;14.38;67.63;101927.47;4922771;29;20115;-83
2021/12/15 11:07:58;;;;;;;4.38;2.38;;;;;;;14.22;68.23;101922.84;4928373;29;19934;-80
2021/12/15 11:19:40;;;;;;;3.45;3.15;;;;;;;14.05;69.58;101926.47;4919004;29;20043;-81
2021/12/15 11:22:54;;;;;;;3.90;2.65;;;;;;;14.07;69.99;101920.72;4942027;29;20019;-80
2021/12/15 11:25:34;;;;;;;7.88;2.78;;;;;;;14.02;69.98;101918.72;4932738;29;20035;-79
2021/12/15 11:28:27;;;;;;;3.38;2.20;;;;;;;14.06;70.18;101925.41;4965259;28;20019;-79
2021/12/15 11:31:14;;;;;;;2.38;2.17;;;;;;;14.12;69.81;101918.88;4955658;29;20058;-79
2021/12/15 11:33:48;;;;;;;4.57;2.10;;;;;;;14.17;69.90;101925.53;4943069;29;20385;-78
2021/12/15 11:36:31;;;;;;;2.63;2.42;;;;;;;14.19;70.17;101912.34;4955966;28;20034;-77
2021/12/15 11:39:25;;;;;;;2.22;2.13;;;;;;;14.22;69.66;101920.94;4943840;28;20031;-79
2021/12/15 11:41:54;;;;;;;4.50;2.42;;;;;;;14.21;69.78;101923.94;4938474;29;20043;-81
2021/12/15 11:44:38;;;;;;;2.25;2.13;;;;;;;14.03;69.97;101895.66;4936846;29;20047;-77
2021/12/15 11:47:22;;;;;;;3.50;3.17;;;;;;;14.10;70.05;101907.28;4945423;29;20027;-80
2021/12/15 11:49:53;;;;;;;3.22;3.03;;;;;;;14.11;70.07;101911.69;4960912;29;20342;-80
2021/12/15 11:52:19;;;;;;;3.55;2.65;;;;;;;14.07;69.60;101905.03;4942269;29;20086;-80
2021/12/15 11:55:03;;;;;;;7.97;2.88;;;;;;;14.01;69.77;101884.06;4942873;29;20019;-79
2021/12/15 11:57:42;;;;;;;;;;;;;;;;;;;;;
2021/12/15 12:00:30;;;;;;;2.67;2.47;;;;;;;14.25;69.56;101916.84;4955679;29;20087;-80
2021/12/15 12:03:13;;;;;;;4.38;2.25;;;;;;;14.28;69.85;101905.31;4961401;29;20015;-81
2021/12/15 12:05:56;;;;;;;;;;;;;;;;;;;;;
2021/12/15 12:08:23;;;;;;;6.20;2.45;;;;;;;14.46;69.29;101907.75;4957358;29;20087;-78
2021/12/15 12:10:52;;;;;;;2.72;2.53;;;;;;;14.46;69.38;101895.94;4933629;29;20023;-79
2021/12/15 12:13:39;;;;;;;2.25;2.05;;;;;;;14.45;68.93;101900.59;4941662;29;20027;-80
2021/12/15 12:16:16;;;;;;;2.67;2.50;;;;;;;14.46;69.15;101891.25;4942956;29;20044;-76
2021/12/15 12:19:06;;;;;;;5.53;1.85;;;;;;;14.61;68.72;101915.41;4940949;29;20755;-81
2021/12/15 12:21:31;;;;;;;3.72;3.15;;;;;;;14.64;68.60;101905.81;4954128;29;20110;-81
2021/12/15 12:24:18;;;;;;;3.38;1.65;;;;;;;14.58;68.02;101890.28;4958653;29;20066;-76
2021/12/15 12:26:45;;;;;;;4.65;1.73;;;;;;;14.66;68.13;101900.88;4943519;29;20286;-82
2021/12/15 12:29:33;;;;;;;;;;;;;;;;;;;;;
2021/12/15 12:32:11;;;;;;;3.60;2.28;;;;;;;14.59;68.17;101886.47;4959194;29;20652;-81
2021/12/15 12:34:42;;;;;;;2.17;2.08;;;;;;;14.66;67.95;101887.13;4935070;29;20118;-81
2021/12/15 12:37:20;;;;;;;2.88;2.42;;;;;;;14.87;67.50;101901.13;4943686;29;20063;-81
2021/12/15 12:40:04;;;;;;;;;;;;;;;;;;;;;
2021/12/15 12:45:40;;;;;;;2.47;2.28;;;;;;;14.98;66.25;101908.38;4948355;28;20039;-81
2021/12/15 12:49:19;;;;;;;1.70;1.60;;;;;;;14.95;64.90;101897.88;4937930;29;20799;-80
2021/12/15 13:01:06;;;;;;;0.98;0.90;;;;;;;14.82;63.38;101905.47;4956302;28;20033;-81
2021/12/15 13:03:57;;;;;;;1.35;1.00;;;;;;;14.86;63.33;101902.19;4934641;29;20024;-82
2021/12/15 13:07:00;;;;;;;;;;;;;;;;;;;;;
2021/12/15 13:09:48;;;;;;;1.42;1.17;;;;;;;14.65;62.86;101896.47;4952305;29;20099;-81
2021/12/15 13:12:57;;;;;;;;;;;;;;;;;;;;;
2021/12/15 13:15:34;;;;;;;1.63;1.52;;;;;;;14.66;62.55;101914.66;4953500;28;21292;-80
2021/12/15 13:18:11;;;;;;;1.40;1.40;;;;;;;14.63;62.67;101912.38;4941020;29;20050;-81
2021/12/15 13:20:47;;;;;;;1.60;1.50;;;;;;;14.60;62.52;101918.38;4929276;29;21202;-81
2021/12/15 13:23:45;;;;;;;1.60;1.50;;;;;;;14.35;62.83;101883.13;4963784;29;20038;-78
2021/12/15 13:29:44;;;;;;;;;;;;;;;;;;;;;
2021/12/15 13:32:15;;;;;;;1.20;1.20;;;;;;;14.30;63.07;101903.97;4960624;28;20110;-85
2021/12/15 13:34:47;;;;;;;1.25;1.25;;;;;;;14.32;63.19;101911.97;4939021;29;20031;-83
2021/12/15 13:37:53;;;;;;;1.20;1.10;;;;;;;14.44;63.35;101915.44;4943918;29;20027;-84
2021/12/15 13:41:30;;;;;;;;;;;;;;;;;;;;;
2021/12/15 13:44:37;;;;;;;;;;;;;;;;;;;;;
2021/12/15 13:47:09;;;;;;;1.42;1.33;;;;;;;14.41;63.64;101904.97;4961973;28;20066;-82
2021/12/15 13:50:08;;;;;;;;;;;;;;;;;;;;;
2021/12/15 13:52:49;;;;;;;1.75;1.65;;;;;;;14.24;63.67;101901.44;4973178;28;20054;-82
2021/12/15 13:55:50;;;;;;;;;;;;;;;;;;;;;
2021/12/15 13:58:22;;;;;;;1.33;1.23;;;;;;;14.31;64.04;101907.59;4962112;28;20047;-84
2021/12/15 14:01:05;;;;;;;1.67;1.50;;;;;;;14.39;63.97;101929.13;4942726;28;20019;-81
2021/12/15 14:03:44;;;;;;;2.65;1.50;;;;;;;14.43;64.20;101918.47;4964886;28;20008;-82
2021/12/15 14:06:16;;;;;;;1.92;1.52;;;;;;;14.44;64.01;101923.72;4956418;28;20012;-82
2021/12/15 14:09:10;;;;;;;1.40;1.30;;;;;;;14.31;64.26;101899.31;4953510;28;20016;-82
2021/12/15 14:11:53;;;;;;;2.38;2.17;;;;;;;14.53;64.42;101928.75;4933919;28;20032;-81
2021/12/15 14:14:46;;;;;;;2.20;2.00;;;;;;;14.49;64.29;101918.25;4968502;28;20035;-82
2021/12/15 14:17:30;;;;;;;2.08;1.90;;;;;;;14.32;63.47;101931.25;4946728;28;20035;-81
2021/12/15 14:19:55;;;;;;;3.95;1.90;;;;;;;14.16;63.33;101932.13;4932041;29;20051;-82
2021/12/15 14:22:21;;;;;;;2.42;1.90;;;;;;;14.00;63.93;101909.88;4946220;29;20015;-79
2021/12/15 14:25:03;;;;;;;1.75;1.65;;;;;;;14.00;63.63;101915.38;4952984;29;20047;-80
2021/12/15 14:27:29;;;;;;;1.55;1.45;;;;;;;13.94;63.66;101916.41;4947674;28;20064;-80
2021/12/15 14:30:08;;;;;;;;;;;;;;;;;;;;;
2021/12/15 14:32:36;;;;;;;1.60;1.50;;;;;;;13.92;64.28;101913.09;4951762;29;20066;-82